Time;durP1;ratioP1;P1;durP2;ratioP2;P2;SDS_P1;SDS_P2;PMS_P1;PMS_P2;Temp;Humidity;BMP_temperature;BMP_pressure;BME280_temperature;BME280_humidity;BME280_pressure;Samples;Min_cycle;Max_cycle;Signal;HPM_P1;HPM_P2
2024/04/07 00:01:32;;;;;;;1.70;1.10;;;;;;;19.96;47.60;98810.00;4945416;29;20246;-74
2024/04/07 00:03:58;;;;;;;2.33;1.13;;;;;;;19.73;49.48;98815.13;4947777;29;20218;-74
2024/04/07 00:06:24;;;;;;;2.10;1.42;;;;;;;19.55;48.68;98815.91;4916220;29;20250;-74
2024/04/07 00:08:50;;;;;;;2.63;1.45;;;;;;;19.41;50.15;98816.72;4945265;28;20217;-74
2024/04/07 00:11:16;;;;;;;4.18;1.55;;;;;;;19.43;47.88;98826.28;4945327;29;20215;-74
2024/04/07 00:13:42;;;;;;;5.15;1.30;;;;;;;19.57;47.61;98832.44;4940674;28;20668;-74
2024/04/07 00:16:07;;;;;;;2.15;1.40;;;;;;;19.44;49.59;98828.03;4929310;29;20306;-74
2024/04/07 00:18:34;;;;;;;1.98;1.15;;;;;;;19.33;50.43;98823.56;4932490;29;20211;-74
2024/04/07 00:21:01;;;;;;;2.00;1.50;;;;;;;19.29;48.78;98843.50;4936049;29;20612;-76
2024/04/07 00:23:27;;;;;;;3.00;1.10;;;;;;;19.23;49.92;98846.09;4929214;29;20211;-74
2024/04/07 00:25:53;;;;;;;4.10;1.30;;;;;;;19.09;51.21;98846.00;4930290;29;20237;-74
2024/04/07 00:28:18;;;;;;;2.40;1.50;;;;;;;18.86;52.23;98846.69;4941242;28;20211;-74
2024/04/07 00:30:44;;;;;;;2.67;1.63;;;;;;;18.52;54.86;98859.38;4910467;29;20254;-75
2024/04/07 00:33:09;;;;;;;2.20;1.40;;;;;;;18.60;54.25;98862.94;4944291;29;20222;-74
2024/04/07 00:35:35;;;;;;;2.55;1.48;;;;;;;18.87;50.30;98864.03;4955570;28;20777;-74
2024/04/07 00:38:01;;;;;;;4.60;1.52;;;;;;;19.44;48.33;98856.66;4923193;29;20250;-74
2024/04/07 00:40:26;;;;;;;4.40;1.30;;;;;;;19.40;48.66;98862.69;4924880;29;20274;-74
2024/04/07 00:42:54;;;;;;;3.45;1.65;;;;;;;19.37;48.76;98862.66;4939594;29;20203;-74
2024/04/07 00:45:20;;;;;;;3.35;1.77;;;;;;;19.55;48.77;98870.59;4909942;29;20301;-75
2024/04/07 00:47:46;;;;;;;3.40;1.60;;;;;;;19.86;47.24;98868.16;4944737;29;20713;-74
2024/04/07 00:50:12;;;;;;;4.13;1.38;;;;;;;19.95;47.30;98849.94;4941332;28;20238;-74
2024/04/07 00:52:38;;;;;;;2.78;1.50;;;;;;;19.85;47.81;98838.63;4926475;29;20586;-74
2024/04/07 00:55:05;;;;;;;3.70;1.58;;;;;;;19.85;48.05;98845.56;4937495;29;20230;-74
2024/04/07 00:57:31;;;;;;;2.22;1.30;;;;;;;19.64;49.64;98851.56;4933347;29;20233;-74
2024/04/07 00:59:57;;;;;;;3.45;1.80;;;;;;;19.67;48.69;98854.16;4941863;28;20211;-75
2024/04/07 01:02:23;;;;;;;6.22;1.65;;;;;;;19.59;48.90;98859.34;4930678;29;20257;-74
2024/04/07 01:04:49;;;;;;;3.97;1.65;;;;;;;19.55;49.13;98883.63;4923490;29;20242;-74
2024/04/07 01:07:14;;;;;;;2.45;1.30;;;;;;;19.45;50.18;98881.81;4928275;29;20629;-73
2024/04/07 01:09:40;;;;;;;4.32;2.13;;;;;;;19.41;49.98;98882.66;4943005;29;20214;-74
2024/04/07 01:12:12;;;;;;;2.83;1.67;;;;;;;19.32;50.61;98894.72;4915672;29;20261;-74
2024/04/07 01:14:38;;;;;;;3.30;1.63;;;;;;;19.32;50.62;98899.94;4930601;28;20204;-74
2024/04/07 01:17:08;;;;;;;3.28;1.48;;;;;;;19.15;51.56;98898.09;4927269;29;20208;-75
2024/04/07 01:19:33;;;;;;;2.83;1.33;;;;;;;19.23;50.74;98890.34;4925363;29;20263;-74
2024/04/07 01:22:00;;;;;;;2.25;1.50;;;;;;;19.18;50.77;98895.50;4943160;28;20219;-74
2024/04/07 01:24:26;;;;;;;2.25;1.40;;;;;;;19.11;51.68;98901.50;4937092;28;20203;-74
2024/04/07 01:26:51;;;;;;;2.53;1.60;;;;;;;19.08;52.72;98911.03;4943705;29;20703;-74
2024/04/07 01:29:17;;;;;;;2.30;1.40;;;;;;;18.92;53.66;98911.78;4945945;28;20298;-75
2024/04/07 01:31:42;;;;;;;2.50;1.38;;;;;;;18.75;55.21;98918.56;4929891;29;20331;-74
2024/04/07 01:34:08;;;;;;;2.22;1.30;;;;;;;18.62;55.23;98921.03;4928833;28;20214;-76
2024/04/07 01:36:34;;;;;;;1.90;1.60;;;;;;;18.38;57.05;98935.44;4917613;29;20309;-74
2024/04/07 01:38:59;;;;;;;2.13;1.33;;;;;;;18.18;58.16;98927.44;4939187;29;20242;-76
2024/04/07 01:41:25;;;;;;;3.70;1.70;;;;;;;18.06;59.04;98927.31;4940385;28;20233;-74
2024/04/07 01:43:50;;;;;;;2.45;1.63;;;;;;;17.93;59.42;98938.38;4942740;28;20199;-74
2024/04/07 01:46:16;;;;;;;2.88;1.55;;;;;;;17.86;59.74;98937.41;4929819;29;20279;-74
2024/04/07 01:48:41;;;;;;;2.45;1.33;;;;;;;17.73;60.02;98935.50;4929395;29;20213;-74
2024/04/07 01:51:07;;;;;;;1.67;1.55;;;;;;;17.62;60.27;98940.56;4941357;29;20214;-73
2024/04/07 01:53:33;;;;;;;3.75;1.42;;;;;;;17.34;61.75;98938.34;4939436;28;20236;-74
2024/04/07 01:55:59;;;;;;;2.50;1.60;;;;;;;17.45;61.30;98947.19;4940463;28;20230;-73
2024/04/07 01:58:24;;;;;;;3.88;1.88;;;;;;;17.13;64.38;98943.22;4942533;28;20215;-73
2024/04/07 02:00:50;;;;;;;3.05;1.30;;;;;;;17.31;62.46;98938.31;4943139;28;20226;-74
2024/04/07 02:03:16;;;;;;;3.35;1.52;;;;;;;16.94;63.27;98935.97;4928555;29;20213;-73
2024/04/07 02:05:41;;;;;;;2.75;1.70;;;;;;;17.21;61.57;98945.94;4923139;29;20237;-74
2024/04/07 02:08:08;;;;;;;2.75;2.10;;;;;;;17.07;63.30;98950.88;4930883;29;20230;-74
2024/04/07 02:10:34;;;;;;;2.63;1.85;;;;;;;17.15;62.08;98954.50;4919367;29;20266;-74
2024/04/07 02:13:00;;;;;;;4.57;1.70;;;;;;;17.24;60.72;98957.22;4928102;29;20206;-74
2024/04/07 02:15:26;;;;;;;2.17;1.60;;;;;;;17.15;61.95;98954.50;4933303;29;20235;-74
2024/04/07 02:17:51;;;;;;;4.28;2.28;;;;;;;17.04;62.72;98953.44;4945318;29;20296;-75
2024/04/07 02:20:18;;;;;;;5.50;2.00;;;;;;;17.25;60.21;98969.34;4943756;28;20546;-74
2024/04/07 02:22:43;;;;;;;6.75;1.90;;;;;;;17.50;58.57;98961.13;4930562;29;20676;-73
2024/04/07 02:25:10;;;;;;;4.35;1.88;;;;;;;17.58;58.69;98964.72;4916245;29;20342;-74
2024/04/07 02:27:35;;;;;;;3.88;1.77;;;;;;;17.67;58.31;98967.47;4963827;28;20219;-74
2024/04/07 02:30:04;;;;;;;5.07;1.60;;;;;;;17.73;57.95;98981.38;4943844;29;21030;-74
2024/04/07 02:32:32;;;;;;;2.67;1.60;;;;;;;17.73;58.98;98978.78;4946224;28;20214;-74
2024/04/07 02:34:57;;;;;;;3.10;1.65;;;;;;;17.76;57.73;98977.09;4946922;28;20227;-74
2024/04/07 02:37:23;;;;;;;3.03;1.60;;;;;;;17.67;58.52;98996.03;4934489;28;20302;-74
2024/04/07 02:39:49;;;;;;;6.63;2.33;;;;;;;17.85;57.48;99002.34;4943149;28;20211;-75
2024/04/07 02:42:15;;;;;;;4.05;2.10;;;;;;;17.74;58.73;99002.19;4943281;29;20238;-74
2024/04/07 02:50:09;;;;;;;4.07;1.88;;;;;;;17.81;58.45;99023.91;4934382;29;20218;-74
2024/04/07 02:52:35;;;;;;;3.05;1.60;;;;;;;17.82;57.80;99020.47;4940165;28;20949;-74
2024/04/07 02:55:01;;;;;;;4.35;1.73;;;;;;;17.73;58.29;99025.50;4929145;29;20227;-74
2024/04/07 02:57:26;;;;;;;4.03;1.60;;;;;;;17.81;58.75;99034.31;4931343;29;20671;-74
2024/04/07 02:59:52;;;;;;;3.40;1.83;;;;;;;17.81;58.36;99036.91;4928410;29;20214;-75
2024/04/07 03:02:20;;;;;;;4.07;1.90;;;;;;;17.83;58.53;99043.84;4933244;29;20246;-74
2024/04/07 03:04:49;;;;;;;3.20;1.83;;;;;;;17.84;59.17;99036.94;4926073;28;20239;-74
2024/04/07 03:07:15;;;;;;;2.40;1.40;;;;;;;17.84;58.94;99047.34;4932460;29;20218;-74
2024/04/07 03:09:40;;;;;;;3.17;1.70;;;;;;;17.75;58.93;99055.00;4942052;28;20227;-77
2024/04/07 03:12:06;;;;;;;3.08;1.40;;;;;;;17.73;59.54;99047.16;4943900;29;20207;-74
2024/04/07 03:14:32;;;;;;;3.70;1.80;;;;;;;17.71;59.57;99059.28;4925969;28;20211;-74
2024/04/07 03:16:58;;;;;;;5.15;2.15;;;;;;;17.56;61.01;99052.09;4938659;28;20671;-74
2024/04/07 03:19:24;;;;;;;4.65;1.70;;;;;;;17.44;60.99;99059.66;4910174;29;20213;-74
2024/04/07 03:21:49;;;;;;;2.28;1.38;;;;;;;17.40;61.62;99063.06;4929557;29;20223;-73
2024/04/07 03:24:15;;;;;;;1.70;1.60;;;;;;;17.43;62.22;99073.47;4918083;29;20215;-74
2024/04/07 03:26:40;;;;;;;2.47;1.45;;;;;;;17.34;62.81;99083.69;4943485;28;20226;-74
2024/04/07 03:29:06;;;;;;;3.97;1.90;;;;;;;17.28;62.59;99093.09;4946864;28;20210;-74
2024/04/07 03:31:31;;;;;;;3.15;1.40;;;;;;;17.27;62.82;99093.97;4916586;29;20218;-75
2024/04/07 03:33:57;;;;;;;3.97;1.73;;;;;;;17.10;63.43;99096.25;4927675;29;20298;-75
2024/04/07 03:36:23;;;;;;;3.47;1.60;;;;;;;16.98;64.01;99091.69;4946905;28;20294;-75
2024/04/07 03:38:48;;;;;;;3.15;1.75;;;;;;;16.95;64.81;99082.97;4931445;29;20215;-75
2024/04/07 03:41:14;;;;;;;5.88;1.92;;;;;;;16.94;64.38;99084.69;4930750;29;20238;-74
2024/04/07 03:43:39;;;;;;;3.28;1.63;;;;;;;16.78;65.10;99085.25;4929916;28;20242;-75
2024/04/07 03:46:05;;;;;;;3.45;1.73;;;;;;;16.76;65.25;99081.72;4938691;29;20231;-75
2024/04/07 03:48:33;;;;;;;2.72;1.70;;;;;;;16.81;65.10;99090.47;4928570;29;20272;-74
2024/04/07 03:50:59;;;;;;;3.10;1.73;;;;;;;16.74;66.11;99095.50;4946228;29;20211;-74
2024/04/07 03:53:28;;;;;;;4.10;1.80;;;;;;;16.72;66.18;99105.84;4944817;28;20211;-74
2024/04/07 03:55:53;;;;;;;4.00;2.00;;;;;;;16.63;66.35;99116.03;4945505;28;20691;-74
2024/04/07 03:58:19;;;;;;;4.82;1.80;;;;;;;16.65;65.93;99094.47;4927555;29;20227;-75
2024/04/07 04:00:45;;;;;;;2.38;1.90;;;;;;;16.60;67.09;99098.69;4943615;28;20735;-75
2024/04/07 04:03:10;;;;;;;4.05;1.75;;;;;;;16.66;66.26;99101.41;4921729;29;20211;-75
2024/04/07 04:05:36;;;;;;;2.15;1.40;;;;;;;16.59;67.01;99107.31;4942628;29;20235;-75
2024/04/07 04:08:02;;;;;;;4.63;1.80;;;;;;;16.52;67.27;99113.16;4926694;29;20206;-75
2024/04/07 04:10:28;;;;;;;3.13;1.70;;;;;;;16.55;67.43;99108.09;4917556;29;20229;-74
2024/04/07 04:12:53;;;;;;;2.58;1.58;;;;;;;16.58;66.75;99108.16;4938823;29;20207;-74
2024/04/07 04:15:19;;;;;;;3.30;1.80;;;;;;;16.53;67.77;99116.66;4928954;29;20227;-74
2024/04/07 04:17:44;;;;;;;2.30;1.80;;;;;;;16.44;67.87;99117.34;4928485;29;20319;-74
2024/04/07 04:20:11;;;;;;;5.05;1.85;;;;;;;16.50;67.92;99129.53;4929076;29;20234;-74
2024/04/07 04:22:36;;;;;;;3.53;1.95;;;;;;;16.47;68.38;99129.47;4946215;28;20235;-74
2024/04/07 04:25:02;;;;;;;2.70;1.60;;;;;;;16.49;67.76;99128.66;4926161;29;20262;-75
2024/04/07 04:27:29;;;;;;;4.22;2.10;;;;;;;16.45;67.91;99142.38;4930932;29;20214;-74
2024/04/07 04:29:54;;;;;;;4.05;2.03;;;;;;;16.42;68.30;99147.50;4933122;29;20211;-74
2024/04/07 04:32:20;;;;;;;4.78;1.90;;;;;;;16.46;68.05;99153.63;4947657;29;20768;-74
2024/04/07 04:34:46;;;;;;;5.07;2.15;;;;;;;16.43;68.31;99158.75;4929817;28;20207;-74
2024/04/07 04:37:12;;;;;;;3.55;1.77;;;;;;;16.43;68.63;99157.03;4914082;29;20242;-75
2024/04/07 04:39:38;;;;;;;4.05;1.92;;;;;;;16.40;68.71;99158.69;4944332;28;20203;-74
2024/04/07 04:42:03;;;;;;;2.63;1.63;;;;;;;16.38;69.12;99169.00;4938239;29;20483;-74
2024/04/07 04:44:29;;;;;;;2.63;1.77;;;;;;;16.38;69.26;99166.41;4931307;29;20286;-74
2024/04/07 04:46:55;;;;;;;4.38;2.05;;;;;;;16.44;68.96;99171.75;4945402;28;20695;-74
2024/04/07 04:49:20;;;;;;;3.35;1.70;;;;;;;16.44;69.31;99166.56;4945933;29;20664;-74
2024/04/07 04:51:48;;;;;;;2.22;1.80;;;;;;;16.35;70.60;99175.84;4937427;28;20674;-74
2024/04/07 04:54:14;;;;;;;3.85;1.98;;;;;;;16.25;71.14;99166.97;4921093;29;21885;-74
2024/04/07 04:56:40;;;;;;;3.65;2.20;;;;;;;16.27;71.05;99173.09;4941238;28;20705;-74
2024/04/07 04:59:05;;;;;;;3.58;1.98;;;;;;;16.28;71.43;99164.44;4921539;29;20211;-74
2024/04/07 05:01:31;;;;;;;3.13;2.08;;;;;;;16.29;71.43;99188.66;4948312;28;20230;-74
2024/04/07 05:03:57;;;;;;;7.18;2.20;;;;;;;16.23;71.48;99185.91;4937805;28;20211;-74
2024/04/07 05:06:24;;;;;;;4.15;2.40;;;;;;;16.19;72.19;99192.75;4923436;29;20223;-74
2024/04/07 05:08:50;;;;;;;4.10;2.47;;;;;;;16.34;71.96;99207.78;4940353;29;20219;-74
2024/04/07 05:11:16;;;;;;;5.55;2.63;;;;;;;16.30;72.55;99203.38;4912530;29;20215;-74
2024/04/07 05:13:42;;;;;;;6.55;2.55;;;;;;;16.34;73.17;99210.38;4924927;29;20199;-74
2024/04/07 05:16:08;;;;;;;4.00;2.47;;;;;;;16.32;73.04;99202.56;4919134;29;20233;-74
2024/04/07 05:18:34;;;;;;;4.25;2.20;;;;;;;16.38;72.68;99213.06;4926035;29;20220;-74
2024/04/07 05:21:04;;;;;;;5.68;2.15;;;;;;;16.43;72.67;99224.41;4926302;29;20223;-74
2024/04/07 05:23:31;;;;;;;5.53;2.10;;;;;;;16.51;72.57;99209.91;4947182;29;20584;-74
2024/04/07 05:26:19;;;;;;;5.38;2.00;;;;;;;16.60;72.13;99217.06;4926469;29;20227;-74
2024/04/07 05:28:44;;;;;;;3.88;2.03;;;;;;;16.61;72.80;99217.09;4931795;29;20268;-74
2024/04/07 05:31:13;;;;;;;5.57;2.00;;;;;;;16.66;72.69;99225.84;4916678;29;20684;-75
2024/04/07 05:33:39;;;;;;;6.95;2.60;;;;;;;16.56;73.29;99234.25;4932309;29;20569;-75
2024/04/07 05:36:05;;;;;;;4.30;2.22;;;;;;;16.63;73.66;99230.97;4925305;29;20281;-74
2024/04/07 05:38:35;;;;;;;3.35;2.03;;;;;;;16.71;72.66;99231.16;4929352;29;20214;-75
2024/04/07 05:41:00;;;;;;;4.80;2.40;;;;;;;16.84;72.00;99240.06;4925976;29;20234;-74
2024/04/07 05:43:26;;;;;;;5.90;2.22;;;;;;;16.88;72.24;99253.16;4946452;29;20676;-74
2024/04/07 05:45:52;;;;;;;7.50;2.25;;;;;;;16.87;72.09;99259.16;4933722;29;20251;-73
2024/04/07 05:48:20;;;;;;;3.60;2.50;;;;;;;16.87;72.09;99266.94;4948224;29;20226;-74
2024/04/07 05:50:46;;;;;;;2.20;1.92;;;;;;;16.93;72.09;99271.38;4928340;29;20203;-75
2024/04/07 05:53:12;;;;;;;3.70;1.90;;;;;;;17.05;72.16;99276.84;4948982;29;20219;-74
2024/04/07 05:55:39;;;;;;;5.63;2.40;;;;;;;17.09;71.78;99263.13;4920931;29;20603;-75
2024/04/07 05:58:04;;;;;;;3.80;2.20;;;;;;;17.23;72.04;99266.88;4916815;29;20238;-74
2024/04/07 06:00:31;;;;;;;4.35;2.30;;;;;;;17.31;71.06;99277.41;4951679;28;20607;-74
2024/04/07 06:02:57;;;;;;;4.88;2.13;;;;;;;17.40;70.96;99296.66;4927789;29;20210;-74
2024/04/07 06:05:23;;;;;;;4.28;2.15;;;;;;;17.40;71.33;99288.00;4940165;29;20234;-74
2024/04/07 06:07:52;;;;;;;3.78;2.10;;;;;;;17.39;70.98;99289.69;4931279;29;20222;-74
2024/04/07 06:10:17;;;;;;;3.65;2.05;;;;;;;17.43;71.97;99290.63;4935136;29;20238;-75
2024/04/07 06:12:43;;;;;;;4.55;2.08;;;;;;;17.51;72.10;99295.13;4929119;29;20666;-75
2024/04/07 06:15:09;;;;;;;5.40;2.22;;;;;;;17.48;71.08;99304.59;4925515;29;20239;-74
2024/04/07 06:17:35;;;;;;;4.70;2.38;;;;;;;17.55;71.58;99304.72;4945466;28;20223;-74
2024/04/07 06:20:00;;;;;;;3.75;2.10;;;;;;;17.58;71.78;99312.63;4947555;29;20207;-75
2024/04/07 06:22:26;;;;;;;3.28;2.15;;;;;;;17.57;71.00;99310.00;4938961;29;20242;-74
2024/04/07 06:24:52;;;;;;;4.80;2.40;;;;;;;17.76;71.11;99300.84;4930718;29;20698;-74
2024/04/07 06:27:18;;;;;;;3.97;2.05;;;;;;;17.79;70.12;99300.94;4929359;29;20214;-74
2024/04/07 06:29:44;;;;;;;3.65;2.03;;;;;;;18.09;69.76;99302.38;4927461;29;20210;-75
2024/04/07 06:32:10;;;;;;;5.68;2.35;;;;;;;18.20;68.52;99294.78;4924292;28;20215;-74
2024/04/07 06:34:35;;;;;;;3.22;1.90;;;;;;;17.98;70.16;99290.91;4945456;28;20210;-74
2024/04/07 06:37:01;;;;;;;3.55;2.22;;;;;;;18.16;70.30;99303.38;4929079;29;20207;-75
2024/04/07 06:39:26;;;;;;;3.58;2.15;;;;;;;18.12;70.25;99291.16;4943191;29;20608;-75
2024/04/07 06:41:52;;;;;;;2.10;1.80;;;;;;;18.16;69.94;99283.44;4948080;28;20222;-74
2024/04/07 06:44:18;;;;;;;7.22;2.30;;;;;;;18.10;69.39;99292.88;4939192;29;20219;-74
2024/04/07 06:46:44;;;;;;;3.78;1.80;;;;;;;18.10;70.17;99292.88;4922981;29;20227;-74
2024/04/07 06:49:09;;;;;;;4.90;2.00;;;;;;;18.09;70.41;99296.31;4935220;29;20211;-74
2024/04/07 06:51:35;;;;;;;2.13;1.73;;;;;;;18.33;70.72;99296.72;4943305;28;20296;-74
2024/04/07 06:54:00;;;;;;;7.05;2.33;;;;;;;18.47;69.46;99294.38;4941642;28;20207;-75
2024/04/07 06:56:26;;;;;;;4.97;2.20;;;;;;;18.60;68.91;99294.63;4921375;29;20766;-74
2024/04/07 06:58:52;;;;;;;4.82;2.00;;;;;;;18.58;69.12;99301.50;4930618;29;20207;-74
2024/04/07 07:01:17;;;;;;;4.75;2.47;;;;;;;18.67;68.88;99299.06;4932812;29;20220;-74
2024/04/07 07:03:43;;;;;;;5.85;2.20;;;;;;;18.83;68.54;99300.16;4922705;28;20214;-74
2024/04/07 07:06:13;;;;;;;2.90;1.75;;;;;;;18.86;68.31;99304.56;4924803;29;20258;-74
2024/04/07 07:08:40;;;;;;;4.25;2.00;;;;;;;18.87;68.19;99307.16;4930931;29;20226;-74
2024/04/07 07:11:08;;;;;;;3.88;2.25;;;;;;;18.94;67.78;99318.53;4932524;29;20729;-74
2024/04/07 07:13:41;;;;;;;3.60;1.90;;;;;;;19.07;68.35;99320.47;4916179;29;20556;-74
2024/04/07 07:16:07;;;;;;;3.50;2.08;;;;;;;19.12;68.33;99326.63;4934117;28;20231;-74
2024/04/07 07:18:33;;;;;;;4.20;2.50;;;;;;;19.16;68.61;99331.91;4941846;29;20217;-74
2024/04/07 07:20:58;;;;;;;3.28;2.20;;;;;;;19.07;69.57;99328.28;4926808;29;20286;-74
2024/04/07 07:23:24;;;;;;;2.78;2.03;;;;;;;19.14;68.75;99327.50;4930625;29;20335;-74
2024/04/07 07:25:50;;;;;;;4.25;2.17;;;;;;;19.24;68.42;99326.78;4942600;28;20306;-74
2024/04/07 07:28:16;;;;;;;3.25;2.10;;;;;;;19.49;66.30;99331.50;4923862;29;20219;-75
2024/04/07 07:30:41;;;;;;;2.40;1.98;;;;;;;19.72;67.03;99336.16;4942366;29;20624;-74
2024/04/07 07:33:07;;;;;;;3.03;2.10;;;;;;;19.73;65.90;99348.28;4944974;29;20258;-74
2024/04/07 07:35:33;;;;;;;4.07;2.10;;;;;;;19.90;67.42;99346.75;4927701;29;20321;-75
2024/04/07 07:37:58;;;;;;;4.18;2.13;;;;;;;19.74;65.99;99353.53;4933260;29;20897;-74
2024/04/07 07:40:24;;;;;;;4.75;2.08;;;;;;;20.00;65.92;99351.22;4928559;29;20218;-74
2024/04/07 07:42:49;;;;;;;4.53;2.10;;;;;;;20.07;65.31;99364.34;4940371;29;20646;-75
2024/04/07 07:45:16;;;;;;;4.15;1.65;;;;;;;20.25;63.86;99353.25;4919393;29;20234;-74
2024/04/07 07:47:42;;;;;;;3.65;2.10;;;;;;;20.04;63.70;99356.50;4925877;29;20218;-74
2024/04/07 07:50:08;;;;;;;2.70;1.80;;;;;;;20.27;64.74;99355.88;4929571;29;20232;-74
2024/04/07 07:52:33;;;;;;;6.68;2.25;;;;;;;20.41;62.36;99363.00;4925763;29;20214;-74
2024/04/07 07:54:59;;;;;;;3.30;1.80;;;;;;;20.32;62.35;99373.34;4925938;29;20234;-74
2024/04/07 07:57:25;;;;;;;6.07;1.92;;;;;;;20.53;61.50;99370.97;4945037;28;20562;-74
2024/04/07 07:59:50;;;;;;;3.88;1.90;;;;;;;20.68;62.02;99375.44;4948706;28;20659;-74
2024/04/07 08:02:16;;;;;;;5.68;2.20;;;;;;;20.37;61.65;99382.09;4943471;29;20253;-74
2024/04/07 08:04:41;;;;;;;3.17;2.13;;;;;;;20.59;62.46;99378.84;4941485;29;20218;-74
2024/04/07 08:07:07;;;;;;;5.18;2.00;;;;;;;20.76;61.72;99388.53;4931591;29;20577;-74
2024/04/07 08:09:32;;;;;;;4.30;1.88;;;;;;;20.82;60.60;99399.94;4939878;29;20199;-74
2024/04/07 08:11:59;;;;;;;3.72;1.60;;;;;;;20.55;61.04;99397.03;4936680;29;20199;-74
2024/04/07 08:14:25;;;;;;;4.60;1.73;;;;;;;20.63;61.96;99391.06;4930530;29;20591;-74
2024/04/07 08:16:50;;;;;;;2.53;1.80;;;;;;;20.52;60.93;99400.50;4943822;28;20226;-74
2024/04/07 08:19:16;;;;;;;2.17;1.95;;;;;;;20.38;61.34;99404.69;4937789;29;20236;-74
2024/04/07 08:21:42;;;;;;;4.78;1.88;;;;;;;20.35;61.55;99404.69;4941926;29;20234;-74
2024/04/07 08:24:07;;;;;;;4.03;1.90;;;;;;;20.69;61.26;99392.00;4922348;29;20618;-74
2024/04/07 08:26:33;;;;;;;1.58;1.45;;;;;;;20.54;58.86;99388.38;4931742;28;20630;-74
2024/04/07 08:28:59;;;;;;;3.17;1.88;;;;;;;20.75;59.67;99386.81;4931281;29;20230;-74
2024/04/07 08:31:24;;;;;;;3.35;1.75;;;;;;;21.11;59.56;99387.13;4942162;29;20226;-74
2024/04/07 08:33:50;;;;;;;1.80;1.48;;;;;;;21.32;57.86;99387.28;4944897;29;20238;-74
2024/04/07 08:36:15;;;;;;;2.42;1.67;;;;;;;21.41;57.25;99387.31;4940601;28;20238;-74
2024/04/07 08:38:41;;;;;;;3.55;1.38;;;;;;;21.57;56.96;99386.56;4925085;29;20294;-74
2024/04/07 08:41:14;;;;;;;4.05;1.60;;;;;;;21.78;57.35;99380.59;4921913;28;20246;-74
2024/04/07 08:43:40;;;;;;;2.88;1.38;;;;;;;21.89;54.24;99383.25;4927401;29;20204;-74
2024/04/07 08:46:11;;;;;;;11.30;2.65;;;;;;;21.72;53.26;99384.91;4931257;29;20274;-73
2024/04/07 08:48:41;;;;;;;3.40;1.50;;;;;;;22.10;53.32;99375.47;4925298;29;20656;-74
2024/04/07 08:51:09;;;;;;;3.17;1.45;;;;;;;21.96;52.91;99385.91;4929276;29;20222;-74
2024/04/07 08:53:40;;;;;;;2.60;1.20;;;;;;;21.94;52.85;99389.38;4956192;28;20219;-74
2024/04/07 08:56:10;;;;;;;1.83;1.60;;;;;;;22.15;51.98;99389.47;4926640;29;20231;-74
2024/04/07 08:58:37;;;;;;;2.65;1.00;;;;;;;21.80;51.62;99393.63;4938129;28;20212;-74
2024/04/07 09:01:04;;;;;;;2.20;1.42;;;;;;;21.59;51.74;99377.00;4944795;28;20227;-74
2024/04/07 09:03:30;;;;;;;2.08;1.10;;;;;;;21.73;49.90;99381.41;4925378;29;20560;-74
2024/04/07 09:05:57;;;;;;;1.20;1.10;;;;;;;21.69;51.03;99383.13;4910253;29;20231;-74
2024/04/07 09:08:23;;;;;;;3.30;1.33;;;;;;;21.88;50.61;99384.09;4943314;28;20207;-73
2024/04/07 09:10:48;;;;;;;1.48;1.02;;;;;;;21.74;50.86;99385.78;4914091;29;20206;-74
2024/04/07 09:13:16;;;;;;;2.47;1.15;;;;;;;21.71;50.92;99385.75;4940828;29;20233;-74
2024/04/07 09:15:42;;;;;;;2.63;1.25;;;;;;;22.14;50.17;99382.47;4945484;28;20238;-74
2024/04/07 09:18:10;;;;;;;2.25;1.00;;;;;;;22.05;51.23;99378.09;4944559;29;20293;-74
2024/04/07 09:20:36;;;;;;;1.55;1.10;;;;;;;22.38;50.64;99373.81;4931006;29;20664;-74
2024/04/07 09:23:01;;;;;;;1.88;1.05;;;;;;;22.09;49.40;99382.47;4945908;28;20249;-74
2024/04/07 09:25:30;;;;;;;3.13;1.25;;;;;;;22.30;49.48;99386.91;4950577;29;20241;-74
2024/04/07 09:27:59;;;;;;;2.00;1.05;;;;;;;22.62;49.02;99385.19;4934931;29;20242;-74
2024/04/07 09:30:25;;;;;;;1.23;0.80;;;;;;;22.12;48.55;99379.88;4946909;28;20221;-74
2024/04/07 09:32:51;;;;;;;1.90;1.17;;;;;;;22.39;49.18;99375.56;4935024;29;20203;-75
2024/04/07 09:35:17;;;;;;;2.28;1.08;;;;;;;22.74;48.48;99371.28;4947209;28;20222;-74
2024/04/07 09:37:43;;;;;;;1.83;1.20;;;;;;;22.82;47.12;99369.56;4921561;29;20214;-74
2024/04/07 09:40:09;;;;;;;1.30;1.10;;;;;;;22.88;48.49;99368.69;4935209;29;20219;-74
2024/04/07 09:42:38;;;;;;;2.22;1.10;;;;;;;22.61;48.63;99359.03;4922993;29;20230;-75
2024/04/07 09:45:11;;;;;;;2.78;1.30;;;;;;;22.71;48.13;99367.81;4935485;29;20226;-74
2024/04/07 09:47:38;;;;;;;2.03;1.35;;;;;;;22.28;47.53;99375.53;4944355;29;20211;-74
2024/04/07 09:50:27;;;;;;;1.58;1.05;;;;;;;22.50;48.45;99369.50;4931011;29;20222;-74
2024/04/07 09:52:57;;;;;;;1.38;1.10;;;;;;;22.78;48.79;99380.03;4917303;29;20652;-74
2024/04/07 09:55:27;;;;;;;1.52;1.10;;;;;;;23.07;47.88;99373.91;4931866;29;20258;-74
2024/04/07 09:57:52;;;;;;;1.98;1.10;;;;;;;23.31;47.01;99372.09;4917230;29;20708;-74
2024/04/07 10:00:20;;;;;;;1.27;1.15;;;;;;;23.09;47.54;99373.91;4916481;29;20210;-74
2024/04/07 10:02:45;;;;;;;1.95;1.25;;;;;;;23.00;46.76;99377.38;4939947;29;20226;-74
2024/04/07 10:05:11;;;;;;;1.95;1.00;;;;;;;23.13;47.39;99373.03;4928530;29;20237;-74
2024/04/07 10:07:37;;;;;;;1.45;1.20;;;;;;;23.05;47.51;99380.91;4917161;29;20704;-73
2024/04/07 10:10:03;;;;;;;1.02;0.80;;;;;;;23.33;47.33;99376.50;4931569;29;20215;-74
2024/04/07 10:12:29;;;;;;;2.20;1.00;;;;;;;23.34;46.03;99370.34;4932190;29;20218;-74
2024/04/07 10:14:55;;;;;;;1.20;0.95;;;;;;;23.46;46.31;99374.75;4927666;29;20294;-74
2024/04/07 10:17:22;;;;;;;1.48;1.00;;;;;;;22.82;46.53;99368.69;4944592;28;20281;-74
2024/04/07 10:19:49;;;;;;;2.03;1.40;;;;;;;22.73;47.26;99374.78;4922744;29;20238;-73
2024/04/07 10:22:18;;;;;;;2.53;1.20;;;;;;;22.88;46.87;99371.28;4944125;29;20238;-73
2024/04/07 10:24:51;;;;;;;1.33;1.05;;;;;;;22.83;47.48;99359.94;4945930;29;20218;-74
2024/04/07 10:27:23;;;;;;;2.03;1.40;;;;;;;23.08;46.55;99361.69;4944668;29;20211;-74
2024/04/07 10:29:56;;;;;;;1.65;1.25;;;;;;;23.19;46.38;99369.53;4941223;29;20721;-74
2024/04/07 10:32:27;;;;;;;1.40;1.30;;;;;;;23.40;46.58;99352.03;4928781;29;20730;-74
2024/04/07 10:35:06;;;;;;;1.13;1.02;;;;;;;23.55;46.22;99356.34;4945865;28;20261;-73
2024/04/07 10:37:39;;;;;;;1.67;1.00;;;;;;;22.94;46.90;99352.94;4927167;29;20261;-74
2024/04/07 10:40:05;;;;;;;2.95;1.20;;;;;;;23.23;47.36;99355.56;4928747;28;20265;-73
2024/04/07 10:42:35;;;;;;;2.22;1.30;;;;;;;23.58;46.55;99349.34;4914904;29;20278;-73
2024/04/07 10:45:01;;;;;;;2.15;1.30;;;;;;;23.58;47.54;99349.34;4926851;29;20226;-74
2024/04/07 10:47:28;;;;;;;1.98;1.13;;;;;;;23.86;46.21;99344.88;4931073;29;20235;-73
2024/04/07 10:49:54;;;;;;;2.03;1.10;;;;;;;23.89;46.90;99344.03;4930199;29;20576;-74
2024/04/07 10:52:20;;;;;;;1.45;1.20;;;;;;;24.05;46.20;99343.06;4944167;28;20207;-74
2024/04/07 10:54:45;;;;;;;2.47;1.40;;;;;;;24.29;45.72;99332.44;4925517;29;20262;-74
2024/04/07 10:57:15;;;;;;;3.17;1.50;;;;;;;24.19;45.08;99328.16;4913724;29;20266;-73
2024/04/07 10:59:42;;;;;;;1.60;1.40;;;;;;;23.98;45.29;99328.22;4923989;28;20215;-73
2024/04/07 11:02:10;;;;;;;3.35;1.75;;;;;;;24.27;45.80;99317.59;4913117;29;20238;-73
2024/04/07 11:04:35;;;;;;;1.90;1.80;;;;;;;24.25;45.36;99311.47;4933385;29;20227;-73
2024/04/07 11:07:02;;;;;;;2.08;1.25;;;;;;;24.24;45.64;99309.75;4930037;29;20746;-73
2024/04/07 11:09:28;;;;;;;1.88;1.40;;;;;;;24.17;44.95;99306.28;4936298;29;20203;-73
2024/04/07 11:11:54;;;;;;;3.00;1.30;;;;;;;24.35;45.85;99303.53;4923507;29;20204;-74
2024/04/07 11:14:27;;;;;;;4.63;1.85;;;;;;;24.49;45.42;99301.69;4930843;29;20215;-74
2024/04/07 11:16:54;;;;;;;2.10;1.35;;;;;;;24.45;44.77;99299.94;4947056;28;20735;-74
2024/04/07 11:19:23;;;;;;;2.88;1.45;;;;;;;24.62;46.10;99302.44;4930011;29;20214;-74
2024/04/07 11:21:50;;;;;;;2.95;1.50;;;;;;;24.52;45.77;99300.78;4945503;29;20289;-74
2024/04/07 11:24:17;;;;;;;2.97;1.48;;;;;;;24.64;45.51;99295.44;4934587;29;20222;-74
2024/04/07 11:26:42;;;;;;;2.03;1.40;;;;;;;24.84;45.59;99292.66;4946880;28;20717;-74
2024/04/07 11:29:11;;;;;;;2.05;1.23;;;;;;;24.70;45.30;99294.50;4914049;29;20214;-74
2024/04/07 11:31:36;;;;;;;2.95;1.73;;;;;;;24.74;44.91;99280.47;4944028;28;20672;-74
2024/04/07 11:34:02;;;;;;;2.90;1.88;;;;;;;24.87;44.32;99282.13;4940304;28;20218;-74
2024/04/07 11:36:27;;;;;;;2.58;1.48;;;;;;;24.65;43.59;99271.78;4931066;28;20723;-74